Time;durP1;ratioP1;P1;durP2;ratioP2;P2;SDS_P1;SDS_P2;PMS_P1;PMS_P2;Temp;Humidity;BMP_temperature;BMP_pressure;BME280_temperature;BME280_humidity;BME280_pressure;Samples;Min_cycle;Max_cycle;Signal;HPM_P1;HPM_P2
2023/03/23 00:00:23;;;;;;;;;;;11.20;99.90;;;;;;5082784;28;19966;-82
2023/03/23 00:02:49;;;;;;;;;;;11.20;99.90;;;;;;5100531;28;19976;-82
2023/03/23 00:05:14;;;;;;;;;;;11.20;99.90;;;;;;5099566;28;19969;-83
2023/03/23 00:07:45;;;;;;;;;;;11.20;99.90;;;;;;5091450;28;19928;-83
2023/03/23 00:10:10;;;;;;;;;;;11.20;99.90;;;;;;5096172;28;19932;-83
2023/03/23 00:12:36;;;;;;;;;;;11.20;99.90;;;;;;5103461;28;19966;-83
2023/03/23 00:15:03;;;;;;;;;;;11.20;99.90;;;;;;5100333;28;19924;-82
2023/03/23 00:17:29;;;;;;;;;;;11.30;99.90;;;;;;5086799;28;19953;-83
2023/03/23 00:19:55;;;;;;;;;;;11.20;99.90;;;;;;5099213;28;19982;-83
2023/03/23 00:22:21;;;;;;;;;;;11.30;99.90;;;;;;5091140;28;20314;-82
2023/03/23 00:24:47;;;;;;;;;;;11.30;99.90;;;;;;5077880;28;19984;-82
2023/03/23 00:27:14;;;;;;;;;;;11.20;99.90;;;;;;5106402;28;19932;-82
2023/03/23 00:29:40;;;;;;;;;;;11.30;99.90;;;;;;5123558;27;20375;-82
2023/03/23 00:32:06;;;;;;;;;;;11.30;99.90;;;;;;5098060;28;19924;-82
2023/03/23 00:34:32;;;;;;;;;;;11.30;99.90;;;;;;5103888;28;19928;-81
2023/03/23 00:36:58;;;;;;;;;;;11.30;99.90;;;;;;5102724;28;19928;-81
2023/03/23 00:39:25;;;;;;;;;;;11.30;99.90;;;;;;5098208;28;19978;-81
2023/03/23 00:41:51;;;;;;;;;;;11.20;99.90;;;;;;5097460;28;19931;-81
2023/03/23 00:44:17;;;;;;;;;;;11.20;99.90;;;;;;5081083;28;19924;-81
2023/03/23 00:46:48;;;;;;;;;;;11.20;99.90;;;;;;5082044;28;19925;-80
2023/03/23 00:49:19;;;;;;;;;;;11.20;99.90;;;;;;5087572;28;19924;-81
2023/03/23 00:51:44;;;;;;;;;;;11.20;99.90;;;;;;5102453;28;20287;-80
2023/03/23 00:54:11;;;;;;;;;;;11.20;99.90;;;;;;5101755;28;19927;-80
2023/03/23 00:56:38;;;;;;;;;;;11.20;99.90;;;;;;5102519;28;19924;-81
2023/03/23 00:59:04;;;;;;;;;;;11.20;99.90;;;;;;5095618;28;19931;-81
2023/03/23 01:01:30;;;;;;;;;;;11.20;99.90;;;;;;5112732;28;19927;-81
2023/03/23 01:04:00;;;;;;;;;;;11.20;99.90;;;;;;5091609;28;19924;-80
2023/03/23 01:06:30;;;;;;;;;;;11.20;99.90;;;;;;5085955;28;19931;-80
2023/03/23 01:08:56;;;;;;;;;;;11.20;99.90;;;;;;5084958;28;19993;-80
2023/03/23 01:11:22;;;;;;;;;;;11.20;99.90;;;;;;5101346;28;19957;-80
2023/03/23 01:13:48;;;;;;;;;;;11.20;99.90;;;;;;5101970;28;19923;-80
2023/03/23 01:16:14;;;;;;;;;;;11.20;99.90;;;;;;5101212;27;19991;-80
2023/03/23 01:18:40;;;;;;;;;;;11.20;99.90;;;;;;5083823;28;19927;-80
2023/03/23 01:21:07;;;;;;;;;;;11.30;99.90;;;;;;5084710;28;19924;-80
2023/03/23 01:23:34;;;;;;;;;;;11.30;99.90;;;;;;5135616;27;19990;-80
2023/03/23 01:26:07;;;;;;;;;;;11.30;99.90;;;;;;5101465;28;19927;-80
2023/03/23 01:28:33;;;;;;;;;;;11.30;99.90;;;;;;5096577;27;19979;-80
2023/03/23 01:31:06;;;;;;;;;;;11.30;99.90;;;;;;5101514;28;19924;-79
2023/03/23 01:33:32;;;;;;;;;;;11.30;99.90;;;;;;5099725;28;19972;-80
2023/03/23 01:36:01;;;;;;;;;;;11.30;99.90;;;;;;5083720;28;20016;-80
2023/03/23 01:38:27;;;;;;;;;;;11.30;99.90;;;;;;5123390;27;19924;-80
2023/03/23 01:40:52;;;;;;;;;;;11.30;99.90;;;;;;5084417;28;19927;-80
2023/03/23 01:43:18;;;;;;;;;;;11.30;99.90;;;;;;5080595;28;19924;-80
2023/03/23 01:45:43;;;;;;;;;;;11.40;99.90;;;;;;5128727;27;19924;-80
2023/03/23 01:48:12;;;;;;;;;;;11.30;99.90;;;;;;5097725;27;20030;-80
2023/03/23 01:50:44;;;;;;;;;;;11.40;99.90;;;;;;5089876;28;19947;-80
2023/03/23 01:53:11;;;;;;;;;;;11.40;99.90;;;;;;5103656;28;20283;-81
2023/03/23 01:55:38;;;;;;;;;;;11.40;99.90;;;;;;5101268;28;19978;-80
2023/03/23 01:58:04;;;;;;;;;;;11.40;99.90;;;;;;5100702;28;19924;-80
2023/03/23 02:00:30;;;;;;;;;;;11.40;99.90;;;;;;5105246;28;20292;-80
2023/03/23 02:02:56;;;;;;;;;;;11.40;99.90;;;;;;5104669;28;19986;-80
2023/03/23 02:05:29;;;;;;;;;;;11.40;99.90;;;;;;5100779;28;19979;-80
2023/03/23 02:07:58;;;;;;;;;;;11.40;99.90;;;;;;5087833;28;19932;-80
2023/03/23 02:10:24;;;;;;;;;;;11.40;99.90;;;;;;5122134;28;19976;-80
2023/03/23 02:12:49;;;;;;;;;;;11.30;99.90;;;;;;5106314;27;20029;-79
2023/03/23 02:15:15;;;;;;;;;;;11.40;99.90;;;;;;5085477;28;19931;-80
2023/03/23 02:17:55;;;;;;;;;;;11.30;99.90;;;;;;5113422;28;19923;-80
2023/03/23 02:20:27;;;;;;;;;;;11.30;99.90;;;;;;5104662;28;19924;-80
2023/03/23 02:22:53;;;;;;;;;;;11.30;99.90;;;;;;5099109;27;19938;-80
2023/03/23 02:25:37;;;;;;;;;;;11.40;99.90;;;;;;5110607;27;19924;-79
2023/03/23 02:28:22;;;;;;;;;;;11.30;99.90;;;;;;5112663;28;19939;-79
2023/03/23 02:30:59;;;;;;;;;;;11.30;99.90;;;;;;5126200;27;19924;-80
2023/03/23 02:33:28;;;;;;;;;;;11.30;99.90;;;;;;5104152;28;19924;-80
2023/03/23 02:35:56;;;;;;;;;;;11.40;99.90;;;;;;5087614;28;19923;-80
2023/03/23 02:38:26;;;;;;;;;;;11.40;99.90;;;;;;5113136;27;19924;-80
2023/03/23 02:40:53;;;;;;;;;;;11.30;99.90;;;;;;5106813;28;19924;-80
2023/03/23 02:43:21;;;;;;;;;;;11.30;99.90;;;;;;5091303;28;19924;-80
2023/03/23 02:45:47;;;;;;;;;;;11.30;99.90;;;;;;5086134;28;19945;-80
2023/03/23 02:48:15;;;;;;;;;;;11.30;99.90;;;;;;5115390;28;19928;-80
2023/03/23 02:50:43;;;;;;;;;;;11.30;99.90;;;;;;5129285;27;19932;-80
2023/03/23 02:53:10;;;;;;;;;;;11.30;99.90;;;;;;5116056;28;19931;-80
2023/03/23 02:55:41;;;;;;;;;;;11.30;99.90;;;;;;5104302;28;19935;-80
2023/03/23 02:58:08;;;;;;;;;;;11.30;99.90;;;;;;5103144;28;19980;-80
2023/03/23 03:00:34;;;;;;;;;;;11.30;99.90;;;;;;5127025;27;19932;-80
2023/03/23 03:03:00;;;;;;;;;;;11.30;99.90;;;;;;5101358;28;19931;-80
2023/03/23 03:05:35;;;;;;;;;;;11.30;99.90;;;;;;5104509;28;20369;-80
2023/03/23 03:08:06;;;;;;;;;;;11.30;99.90;;;;;;5103779;28;19987;-80
2023/03/23 03:10:44;;;;;;;;;;;11.30;99.90;;;;;;5103896;28;19992;-80
2023/03/23 03:13:23;;;;;;;;;;;11.30;99.90;;;;;;5103833;28;19955;-80
2023/03/23 03:15:56;;;;;;;;;;;11.30;99.90;;;;;;5087086;28;19928;-80
2023/03/23 03:18:28;;;;;;;;;;;11.20;99.90;;;;;;5101188;28;19923;-79
2023/03/23 03:20:56;;;;;;;;;;;11.30;99.90;;;;;;5103425;28;19949;-79
2023/03/23 03:23:22;;;;;;;;;;;11.30;99.90;;;;;;5102896;28;19924;-80
2023/03/23 03:25:49;;;;;;;;;;;11.30;99.90;;;;;;5086504;28;19952;-80
2023/03/23 03:28:16;;;;;;;;;;;11.30;99.90;;;;;;5104461;28;19923;-80
2023/03/23 03:30:43;;;;;;;;;;;11.30;99.90;;;;;;5086782;28;19924;-80
2023/03/23 03:33:09;;;;;;;;;;;11.30;99.90;;;;;;5099191;28;19963;-80
2023/03/23 03:35:36;;;;;;;;;;;11.30;99.90;;;;;;5119085;28;19924;-80
2023/03/23 03:38:07;;;;;;;;;;;11.30;99.90;;;;;;5092799;28;20019;-79
2023/03/23 03:40:32;;;;;;;;;;;11.30;99.90;;;;;;5069499;28;19928;-80
2023/03/23 03:42:58;;;;;;;;;;;11.30;99.90;;;;;;5069800;28;19928;-80
2023/03/23 03:45:23;;;;;;;;;;;11.30;99.90;;;;;;5079779;28;19964;-80
2023/03/23 03:47:49;;;;;;;;;;;11.30;99.90;;;;;;5071776;27;19931;-80
2023/03/23 03:50:16;;;;;;;;;;;11.40;99.90;;;;;;5084537;28;20020;-80
2023/03/23 03:52:41;;;;;;;;;;;11.40;99.90;;;;;;5090477;28;19924;-80
2023/03/23 03:55:07;;;;;;;;;;;11.40;99.90;;;;;;5096961;28;19969;-81
2023/03/23 03:57:34;;;;;;;;;;;11.40;99.90;;;;;;5094033;28;19928;-80
2023/03/23 04:00:00;;;;;;;;;;;11.40;99.90;;;;;;5101927;28;20002;-80
2023/03/23 04:02:25;;;;;;;;;;;11.40;99.90;;;;;;5100917;28;20506;-80
2023/03/23 04:04:54;;;;;;;;;;;11.40;99.90;;;;;;5103430;27;19974;-81
2023/03/23 04:07:21;;;;;;;;;;;11.40;99.90;;;;;;5099674;28;19935;-81
2023/03/23 04:09:47;;;;;;;;;;;11.40;99.90;;;;;;5098321;27;19932;-80
2023/03/23 04:12:13;;;;;;;;;;;11.40;99.90;;;;;;5080550;27;19941;-80
2023/03/23 04:14:39;;;;;;;;;;;11.40;99.90;;;;;;5094699;27;19930;-81
2023/03/23 04:17:06;;;;;;;;;;;11.50;99.90;;;;;;5073141;27;19952;-80
2023/03/23 04:19:32;;;;;;;;;;;11.50;99.90;;;;;;5094956;28;20053;-80
2023/03/23 04:21:58;;;;;;;;;;;11.50;99.90;;;;;;5095671;27;19997;-81
2023/03/23 04:24:25;;;;;;;;;;;11.60;99.90;;;;;;5124293;27;19930;-80
2023/03/23 04:26:54;;;;;;;;;;;11.50;99.90;;;;;;5092514;27;19923;-80
2023/03/23 04:29:20;;;;;;;;;;;11.50;99.90;;;;;;5121429;27;20014;-80
2023/03/23 04:31:45;;;;;;;;;;;11.60;99.90;;;;;;5074406;27;20326;-80
2023/03/23 04:34:13;;;;;;;;;;;11.50;99.90;;;;;;5075226;28;19924;-79
2023/03/23 04:36:39;;;;;;;;;;;11.50;99.90;;;;;;5089532;27;19927;-79
2023/03/23 04:39:09;;;;;;;;;;;11.50;99.90;;;;;;5076083;27;20065;-79
2023/03/23 04:41:35;;;;;;;;;;;11.50;99.90;;;;;;5074290;27;19935;-81
2023/03/23 04:44:02;;;;;;;;;;;11.50;99.90;;;;;;5088053;28;19924;-80
2023/03/23 04:46:31;;;;;;;;;;;11.40;99.90;;;;;;5104782;27;19963;-80
2023/03/23 04:48:58;;;;;;;;;;;11.50;99.90;;;;;;5094793;27;20156;-81
2023/03/23 04:51:26;;;;;;;;;;;11.50;99.90;;;;;;5120383;27;20010;-81
2023/03/23 04:53:51;;;;;;;;;;;11.40;99.90;;;;;;5083401;28;19924;-79
2023/03/23 04:56:18;;;;;;;;;;;11.40;99.90;;;;;;5084414;27;20015;-78
2023/03/23 04:58:44;;;;;;;;;;;11.40;99.90;;;;;;5073469;27;20052;-78
2023/03/23 05:01:13;;;;;;;;;;;11.30;99.90;;;;;;5072661;28;20361;-77
2023/03/23 05:03:43;;;;;;;;;;;11.20;99.90;;;;;;5121857;27;19930;-77
2023/03/23 05:06:09;;;;;;;;;;;11.20;99.90;;;;;;5070546;28;20483;-77
2023/03/23 05:08:38;;;;;;;;;;;11.10;99.90;;;;;;5075658;28;19928;-77
2023/03/23 05:11:05;;;;;;;;;;;10.90;99.90;;;;;;5067233;27;20305;-77
2023/03/23 05:13:30;;;;;;;;;;;10.80;99.90;;;;;;5102585;27;20371;-79
2023/03/23 05:15:56;;;;;;;;;;;10.70;99.90;;;;;;5109725;27;19931;-80
2023/03/23 05:18:22;;;;;;;;;;;10.70;99.90;;;;;;5077080;28;19928;-81
2023/03/23 05:20:48;;;;;;;;;;;10.70;99.90;;;;;;5088201;28;19930;-81
2023/03/23 05:23:14;;;;;;;;;;;10.70;99.90;;;;;;5076890;27;20366;-81
2023/03/23 05:25:40;;;;;;;;;;;10.70;99.90;;;;;;5075180;28;19965;-81
2023/03/23 05:28:06;;;;;;;;;;;10.70;99.90;;;;;;5089033;28;19924;-82
2023/03/23 05:30:32;;;;;;;;;;;10.70;99.90;;;;;;5102799;28;19970;-81
2023/03/23 05:32:57;;;;;;;;;;;10.70;99.90;;;;;;5090313;28;19927;-82
2023/03/23 05:35:23;;;;;;;;;;;10.70;99.90;;;;;;5126013;27;19928;-82
2023/03/23 05:37:49;;;;;;;;;;;10.70;99.90;;;;;;5102296;28;19954;-82
2023/03/23 05:40:15;;;;;;;;;;;10.70;99.90;;;;;;5084443;28;19930;-82
2023/03/23 05:42:40;;;;;;;;;;;10.70;99.90;;;;;;5084459;28;19955;-82
2023/03/23 05:45:08;;;;;;;;;;;10.70;99.90;;;;;;5101770;28;20331;-81
2023/03/23 05:47:34;;;;;;;;;;;10.70;99.90;;;;;;5098435;28;20006;-81
2023/03/23 05:50:00;;;;;;;;;;;10.70;99.90;;;;;;5077512;28;19930;-82
2023/03/23 05:52:26;;;;;;;;;;;10.70;99.90;;;;;;5102207;28;19928;-82
2023/03/23 05:54:52;;;;;;;;;;;10.80;99.90;;;;;;5100681;28;19923;-83
2023/03/23 05:57:18;;;;;;;;;;;10.80;99.90;;;;;;5101163;28;20006;-82
2023/03/23 05:59:44;;;;;;;;;;;10.70;99.90;;;;;;5102854;28;19934;-83
2023/03/23 06:02:10;;;;;;;;;;;10.70;99.90;;;;;;5135182;28;19986;-82
2023/03/23 06:04:37;;;;;;;;;;;10.70;99.90;;;;;;5098866;28;19923;-82
2023/03/23 06:07:03;;;;;;;;;;;10.70;99.90;;;;;;5121038;28;19928;-82
2023/03/23 06:09:29;;;;;;;;;;;10.70;99.90;;;;;;5093940;28;20489;-83
2023/03/23 06:11:54;;;;;;;;;;;10.60;99.90;;;;;;5098052;28;20010;-83
2023/03/23 06:14:21;;;;;;;;;;;10.60;99.90;;;;;;5127388;28;19963;-82
2023/03/23 06:16:47;;;;;;;;;;;10.60;99.90;;;;;;5099662;28;19931;-81
2023/03/23 06:19:12;;;;;;;;;;;10.60;99.90;;;;;;5100906;28;19931;-81
2023/03/23 06:21:38;;;;;;;;;;;10.60;99.90;;;;;;5081519;28;19928;-81
2023/03/23 06:24:04;;;;;;;;;;;10.60;99.90;;;;;;5108957;28;19924;-81
2023/03/23 06:26:32;;;;;;;;;;;10.60;99.90;;;;;;5086670;28;19986;-81
2023/03/23 06:28:57;;;;;;;;;;;10.60;99.90;;;;;;5100330;28;19923;-81
2023/03/23 06:31:24;;;;;;;;;;;10.60;99.90;;;;;;5104477;28;19940;-81
2023/03/23 06:33:50;;;;;;;;;;;10.70;99.90;;;;;;5096769;28;19923;-80
2023/03/23 06:36:16;;;;;;;;;;;10.60;99.90;;;;;;5097966;28;19931;-80
2023/03/23 06:38:42;;;;;;;;;;;10.70;99.90;;;;;;5120328;28;20021;-81
2023/03/23 06:41:08;;;;;;;;;;;10.70;99.90;;;;;;5117561;28;19985;-80
2023/03/23 06:43:35;;;;;;;;;;;10.70;99.90;;;;;;5079265;28;19924;-81
2023/03/23 06:46:01;;;;;;;;;;;10.70;99.90;;;;;;5099329;28;19928;-81
2023/03/23 06:48:27;;;;;;;;;;;10.70;99.90;;;;;;5111729;28;20462;-81
2023/03/23 06:50:53;;;;;;;;;;;10.70;99.90;;;;;;5101252;28;20001;-80
2023/03/23 06:53:20;;;;;;;;;;;10.70;99.90;;;;;;5100812;28;19930;-81
2023/03/23 06:55:46;;;;;;;;;;;10.70;99.90;;;;;;5097393;28;19924;-81
2023/03/23 06:58:12;;;;;;;;;;;10.70;99.90;;;;;;5098826;28;20421;-81
2023/03/23 07:00:38;;;;;;;;;;;10.70;99.90;;;;;;5088632;27;19978;-80
2023/03/23 07:03:04;;;;;;;;;;;10.70;99.90;;;;;;5103602;28;20321;-81
2023/03/23 07:05:30;;;;;;;;;;;10.80;99.90;;;;;;5073459;28;19928;-80
2023/03/23 07:07:55;;;;;;;;;;;10.80;99.90;;;;;;5133421;27;20392;-80
2023/03/23 07:10:21;;;;;;;;;;;10.90;99.90;;;;;;5103967;28;19924;-80
2023/03/23 07:12:46;;;;;;;;;;;10.80;99.90;;;;;;5103294;28;19924;-80
2023/03/23 07:15:12;;;;;;;;;;;10.90;99.90;;;;;;5098292;28;19923;-80
2023/03/23 07:17:38;;;;;;;;;;;10.90;99.90;;;;;;5086961;28;19924;-80
2023/03/23 07:20:04;;;;;;;;;;;11.00;99.90;;;;;;5086830;28;19985;-80
2023/03/23 07:22:30;;;;;;;;;;;11.00;99.90;;;;;;5102576;28;19932;-80
2023/03/23 07:24:56;;;;;;;;;;;11.10;99.90;;;;;;5102268;28;19935;-80
2023/03/23 07:27:21;;;;;;;;;;;11.10;99.90;;;;;;5077640;28;19924;-80
2023/03/23 07:29:47;;;;;;;;;;;11.10;99.90;;;;;;5096365;28;19928;-80
2023/03/23 07:32:13;;;;;;;;;;;11.20;99.90;;;;;;5080903;28;20905;-80
2023/03/23 07:34:38;;;;;;;;;;;11.20;99.90;;;;;;5113338;28;19934;-80
2023/03/23 07:37:04;;;;;;;;;;;11.30;99.90;;;;;;5086551;28;19924;-80
2023/03/23 07:39:30;;;;;;;;;;;11.50;99.90;;;;;;5104249;28;19968;-80
2023/03/23 07:41:56;;;;;;;;;;;11.60;99.90;;;;;;5135779;27;19980;-80
2023/03/23 07:44:22;;;;;;;;;;;11.70;99.90;;;;;;5104021;28;19927;-80
2023/03/23 07:46:48;;;;;;;;;;;11.70;99.90;;;;;;5080561;28;19924;-79
2023/03/23 07:49:14;;;;;;;;;;;11.70;99.90;;;;;;5095536;27;19974;-79
2023/03/23 07:51:39;;;;;;;;;;;11.70;99.90;;;;;;5074066;28;19928;-79
2023/03/23 07:54:07;;;;;;;;;;;11.70;99.90;;;;;;5077322;28;20334;-80
2023/03/23 07:56:33;;;;;;;;;;;11.80;99.90;;;;;;5097430;28;19991;-80
2023/03/23 07:58:59;;;;;;;;;;;11.80;99.90;;;;;;5118436;27;19928;-80
2023/03/23 08:01:25;;;;;;;;;;;11.80;99.90;;;;;;5082221;27;19932;-81
2023/03/23 08:03:51;;;;;;;;;;;11.80;99.90;;;;;;5097547;28;19970;-80
2023/03/23 08:06:17;;;;;;;;;;;11.90;99.90;;;;;;5077116;28;20922;-80
2023/03/23 08:08:43;;;;;;;;;;;11.90;99.90;;;;;;5094356;27;19931;-79
2023/03/23 08:11:08;;;;;;;;;;;11.90;99.90;;;;;;5092307;28;19924;-80
2023/03/23 08:13:35;;;;;;;;;;;12.00;99.90;;;;;;5124696;27;19931;-80
2023/03/23 08:16:03;;;;;;;;;;;12.00;99.90;;;;;;5110590;28;19923;-80
2023/03/23 08:18:29;;;;;;;;;;;12.10;99.90;;;;;;5102708;28;19935;-80
2023/03/23 08:20:55;;;;;;;;;;;12.10;99.90;;;;;;5092382;28;19967;-80
2023/03/23 08:23:21;;;;;;;;;;;12.10;99.90;;;;;;5098452;28;19928;-80
2023/03/23 08:25:47;;;;;;;;;;;12.10;99.90;;;;;;5100634;28;20342;-80
2023/03/23 08:28:13;;;;;;;;;;;12.10;99.90;;;;;;5078037;28;19930;-80
2023/03/23 08:30:39;;;;;;;;;;;12.10;99.90;;;;;;5078246;28;19953;-80
2023/03/23 08:33:05;;;;;;;;;;;12.00;99.90;;;;;;5092617;27;19935;-80
2023/03/23 08:35:31;;;;;;;;;;;12.00;99.90;;;;;;5098993;28;20320;-80
2023/03/23 08:37:57;;;;;;;;;;;12.00;99.90;;;;;;5071443;28;20028;-80
2023/03/23 08:40:23;;;;;;;;;;;11.90;99.90;;;;;;5092018;28;19932;-80
2023/03/23 08:42:49;;;;;;;;;;;11.90;99.90;;;;;;5126263;27;19924;-80
2023/03/23 08:45:16;;;;;;;;;;;11.90;99.90;;;;;;5073387;28;19975;-80
2023/03/23 08:47:42;;;;;;;;;;;11.90;99.90;;;;;;5093558;28;19931;-80
2023/03/23 08:50:10;;;;;;;;;;;11.90;99.90;;;;;;5106678;28;19931;-80
2023/03/23 08:52:37;;;;;;;;;;;11.90;99.90;;;;;;5101490;27;19975;-80
2023/03/23 08:55:03;;;;;;;;;;;11.90;99.90;;;;;;5105029;28;19928;-80
2023/03/23 08:57:29;;;;;;;;;;;12.00;99.90;;;;;;5067712;28;19923;-79
2023/03/23 08:59:57;;;;;;;;;;;12.00;99.90;;;;;;5124156;27;19924;-79
2023/03/23 09:02:23;;;;;;;;;;;12.00;99.90;;;;;;5085032;28;19963;-79
2023/03/23 09:04:50;;;;;;;;;;;12.00;99.90;;;;;;5089133;28;19925;-80
2023/03/23 09:07:15;;;;;;;;;;;12.10;99.90;;;;;;5127877;27;19928;-79
2023/03/23 09:09:41;;;;;;;;;;;12.10;99.90;;;;;;5100842;28;20266;-79
2023/03/23 09:12:08;;;;;;;;;;;12.00;99.90;;;;;;5084470;28;19924;-80
2023/03/23 09:14:34;;;;;;;;;;;12.00;99.90;;;;;;5102139;27;19927;-79
2023/03/23 09:17:00;;;;;;;;;;;12.00;99.90;;;;;;5067297;28;20409;-79
2023/03/23 09:19:26;;;;;;;;;;;12.00;99.90;;;;;;5118737;27;19924;-79
2023/03/23 09:21:52;;;;;;;;;;;12.10;99.90;;;;;;5080911;28;20020;-79
2023/03/23 09:24:18;;;;;;;;;;;12.10;99.90;;;;;;5073367;28;19932;-79
2023/03/23 09:26:45;;;;;;;;;;;12.10;99.90;;;;;;5084922;28;19928;-79
2023/03/23 09:29:11;;;;;;;;;;;12.10;99.90;;;;;;5076413;27;19928;-79
2023/03/23 09:31:37;;;;;;;;;;;12.00;99.90;;;;;;5076427;28;20008;-79
2023/03/23 09:34:04;;;;;;;;;;;12.30;99.90;;;;;;5074895;28;19966;-79
2023/03/23 09:36:30;;;;;;;;;;;12.70;99.90;;;;;;5122260;27;19928;-80
2023/03/23 09:38:57;;;;;;;;;;;13.10;99.90;;;;;;5099067;28;19924;-69
2023/03/23 09:41:34;;;;;;;;;;;13.50;99.90;;;;;;5107763;27;19931;-70
2023/03/23 09:44:10;;;;;;;;;;;13.80;99.90;;;;;;5092269;28;20028;-70
2023/03/23 09:46:56;;;;;;;;;;;14.30;99.90;;;;;;5110450;27;19924;-70
2023/03/23 09:49:24;;;;;;;;;;;15.00;99.90;;;;;;5089773;28;20581;-70
2023/03/23 09:51:51;;;;;;;;;;;15.50;99.90;;;;;;5087699;28;19935;-70
2023/03/23 09:54:27;;;;;;;;;;;15.60;99.90;;;;;;5085947;28;19925;-70
2023/03/23 09:56:54;;;;;;;;;;;15.90;99.90;;;;;;5083983;28;19936;-70
2023/03/23 09:59:41;;;;;;;;;;;16.10;99.90;;;;;;5090333;28;19928;-69
2023/03/23 10:02:12;;;;;;;;;;;16.10;99.90;;;;;;5090041;28;19924;-70
2023/03/23 10:04:41;;;;;;;;;;;16.40;99.90;;;;;;5087656;28;19973;-70
2023/03/23 10:07:23;;;;;;;;;;;16.20;99.90;;;;;;5088281;28;19973;-69
2023/03/23 10:09:51;;;;;;;;;;;16.40;99.90;;;;;;5087896;28;19939;-69
2023/03/23 10:12:46;;;;;;;;;;;16.90;99.90;;;;;;5091765;28;19931;-69
2023/03/23 10:15:17;;;;;;;;;;;17.20;99.90;;;;;;5069810;28;19937;-70
2023/03/23 10:17:55;;;;;;;;;;;16.90;99.90;;;;;;5090343;28;19930;-69
2023/03/23 10:20:23;;;;;;;;;;;16.20;99.90;;;;;;5087756;28;19963;-70
2023/03/23 10:22:55;;;;;;;;;;;15.50;99.90;;;;;;5088986;28;20383;-70
2023/03/23 10:25:23;;;;;;;;;;;14.90;99.90;;;;;;5086368;28;20029;-70
2023/03/23 10:28:08;;;;;;;;;;;14.60;99.90;;;;;;5087689;28;19924;-69
2023/03/23 10:30:39;;;;;;;;;;;14.40;99.90;;;;;;5086229;28;20423;-69
2023/03/23 10:33:11;;;;;;;;;;;14.40;99.90;;;;;;5087373;28;20058;-70
2023/03/23 10:35:44;;;;;;;;;;;14.40;99.90;;;;;;5094483;28;20414;-69
2023/03/23 10:38:13;;;;;;;;;;;14.30;99.90;;;;;;5088969;28;19932;-69
2023/03/23 10:40:47;;;;;;;;;;;14.20;99.90;;;;;;5084079;28;19931;-80
2023/03/23 10:43:13;;;;;;;;;;;14.10;99.90;;;;;;5094747;28;19932;-79
2023/03/23 10:45:40;;;;;;;;;;;14.30;99.90;;;;;;5046624;28;19943;-79
2023/03/23 10:48:05;;;;;;;;;;;14.70;99.90;;;;;;5064300;28;19970;-80
2023/03/23 10:50:34;;;;;;;;;;;15.10;99.90;;;;;;5092578;28;19932;-79
2023/03/23 10:53:00;;;;;;;;;;;15.50;99.90;;;;;;5109438;28;19949;-80
2023/03/23 10:55:39;;;;;;;;;;;15.80;99.90;;;;;;5071231;28;19948;-79
2023/03/23 10:58:07;;;;;;;;;;;16.00;99.90;;;;;;5081628;28;19924;-79
2023/03/23 11:00:33;;;;;;;;;;;16.20;99.90;;;;;;5091311;28;19924;-79
2023/03/23 11:03:05;;;;;;;;;;;16.20;99.90;;;;;;5090713;28;19931;-79
2023/03/23 11:05:40;;;;;;;;;;;15.90;99.90;;;;;;5093483;28;20468;-80
2023/03/23 11:08:14;;;;;;;;;;;15.50;99.90;;;;;;5082790;28;19925;-79
2023/03/23 11:10:42;;;;;;;;;;;15.10;99.90;;;;;;5080911;28;19959;-79
2023/03/23 11:13:15;;;;;;;;;;;14.80;99.90;;;;;;5083459;28;19931;-79
2023/03/23 11:15:41;;;;;;;;;;;14.60;99.90;;;;;;5081756;28;19967;-79
2023/03/23 11:18:13;;;;;;;;;;;14.70;99.90;;;;;;5082270;28;19928;-79
2023/03/23 11:20:41;;;;;;;;;;;14.80;99.90;;;;;;5099077;28;19982;-80
2023/03/23 11:23:10;;;;;;;;;;;14.90;99.90;;;;;;5098569;28;19983;-79
2023/03/23 11:25:50;;;;;;;;;;;14.70;99.90;;;;;;5083034;28;19924;-79
2023/03/23 11:28:16;;;;;;;;;;;14.50;99.90;;;;;;5103936;27;19924;-80
2023/03/23 11:30:42;;;;;;;;;;;14.30;99.90;;;;;;5074217;28;19924;-79
2023/03/23 11:33:08;;;;;;;;;;;14.50;99.90;;;;;;5075921;28;20053;-79
2023/03/23 11:35:33;;;;;;;;;;;14.80;99.90;;;;;;5077725;28;20007;-80
2023/03/23 11:37:59;;;;;;;;;;;15.10;99.90;;;;;;5065606;28;19950;-79
2023/03/23 11:40:27;;;;;;;;;;;15.40;99.90;;;;;;5069961;28;19939;-79
2023/03/23 11:42:52;;;;;;;;;;;15.60;99.90;;;;;;5105416;28;19924;-79
2023/03/23 11:45:18;;;;;;;;;;;15.60;99.90;;;;;;5090253;28;19924;-78
2023/03/23 11:47:49;;;;;;;;;;;15.40;99.90;;;;;;5068516;28;19951;-79
2023/03/23 11:50:22;;;;;;;;;;;15.20;99.90;;;;;;5094590;28;19931;-79
2023/03/23 11:53:03;;;;;;;;;;;15.10;99.90;;;;;;5108834;28;19924;-79
2023/03/23 11:55:37;;;;;;;;;;;15.20;99.90;;;;;;5074682;28;19927;-79
2023/03/23 11:58:14;;;;;;;;;;;15.20;99.90;;;;;;5101368;28;19925;-78
2023/03/23 12:00:42;;;;;;;;;;;15.00;99.90;;;;;;5106732;28;19935;-79
2023/03/23 12:03:26;;;;;;;;;;;15.00;99.90;;;;;;5069660;28;19986;-79
2023/03/23 12:05:57;;;;;;;;;;;15.10;99.90;;;;;;5092109;28;19924;-78
2023/03/23 12:08:43;;;;;;;;;;;15.30;99.90;;;;;;5075062;28;19932;-78
2023/03/23 12:11:19;;;;;;;;;;;15.60;99.90;;;;;;5064627;28;19924;-79
2023/03/23 12:13:55;;;;;;;;;;;16.10;99.90;;;;;;5087821;28;19935;-79
2023/03/23 12:16:21;;;;;;;;;;;16.40;99.90;;;;;;5086057;28;19924;-79
2023/03/23 12:18:50;;;;;;;;;;;16.50;99.90;;;;;;5065410;28;21464;-78
2023/03/23 12:21:15;;;;;;;;;;;16.60;99.90;;;;;;5064255;28;20295;-79
2023/03/23 12:23:56;;;;;;;;;;;16.70;99.90;;;;;;5072991;28;19924;-79
2023/03/23 12:26:33;;;;;;;;;;;16.60;99.90;;;;;;5086240;28;20000;-79
2023/03/23 12:29:17;;;;;;;;;;;16.40;98.50;;;;;;5071127;28;19939;-79
2023/03/23 12:31:51;;;;;;;;;;;16.40;99.90;;;;;;5106063;28;19924;-79
2023/03/23 12:34:36;;;;;;;;;;;16.50;96.80;;;;;;5076642;28;19928;-79
2023/03/23 12:37:20;;;;;;;;;;;16.60;97.80;;;;;;5076193;28;19932;-79
2023/03/23 12:40:03;;;;;;;;;;;16.50;98.70;;;;;;5082653;28;19928;-79
2023/03/23 12:42:35;;;;;;;;;;;16.30;97.10;;;;;;5101300;28;19934;-79
2023/03/23 12:45:22;;;;;;;;;;;16.10;95.30;;;;;;5082604;28;19931;-79
2023/03/23 12:47:53;;;;;;;;;;;15.80;98.00;;;;;;5094851;28;19925;-80
2023/03/23 12:50:46;;;;;;;;;;;15.60;98.20;;;;;;5106298;28;19923;-79
2023/03/23 12:53:19;;;;;;;;;;;15.60;99.00;;;;;;5033167;28;19935;-79
2023/03/23 12:55:54;;;;;;;;;;;15.50;98.60;;;;;;5093855;28;20135;-79
2023/03/23 12:58:28;;;;;;;;;;;15.60;98.90;;;;;;5093115;28;19930;-79
2023/03/23 13:00:56;;;;;;;;;;;15.80;99.40;;;;;;5071768;28;19950;-79
2023/03/23 13:03:26;;;;;;;;;;;15.90;98.20;;;;;;5073113;28;19924;-79
2023/03/23 13:06:00;;;;;;;;;;;16.20;97.60;;;;;;5073940;28;19924;-79
2023/03/23 13:11:16;;;;;;;;;;;16.40;95.70;;;;;;5091731;28;19928;-79
2023/03/23 13:13:50;;;;;;;;;;;16.30;93.50;;;;;;5089341;28;20362;-79
2023/03/23 13:16:26;;;;;;;;;;;16.30;95.30;;;;;;5072724;28;19955;-79
2023/03/23 13:19:10;;;;;;;;;;;16.20;95.50;;;;;;5102220;28;19930;-79
2023/03/23 13:21:49;;;;;;;;;;;16.30;95.10;;;;;;5071786;28;20007;-79
2023/03/23 13:24:17;;;;;;;;;;;16.30;98.40;;;;;;5120947;27;19931;-79
2023/03/23 13:26:43;;;;;;;;;;;16.40;94.80;;;;;;5092111;28;19984;-79
2023/03/23 13:29:13;;;;;;;;;;;16.40;94.90;;;;;;5064568;28;20018;-79
2023/03/23 13:31:39;;;;;;;;;;;16.50;93.50;;;;;;5072622;28;19924;-79
2023/03/23 13:34:06;;;;;;;;;;;16.60;95.20;;;;;;5074377;28;19950;-79
2023/03/23 13:36:37;;;;;;;;;;;16.80;95.40;;;;;;5084075;28;19924;-79
2023/03/23 13:39:04;;;;;;;;;;;16.70;92.40;;;;;;5116910;27;20458;-79
2023/03/23 13:41:30;;;;;;;;;;;16.40;92.00;;;;;;5084714;28;19924;-79
2023/03/23 13:44:15;;;;;;;;;;;16.20;91.10;;;;;;5067179;28;20466;-79
2023/03/23 13:46:41;;;;;;;;;;;16.00;94.10;;;;;;5087558;28;19924;-79
2023/03/23 13:49:18;;;;;;;;;;;15.80;94.70;;;;;;5085276;28;19949;-79
2023/03/23 13:51:43;;;;;;;;;;;15.70;94.50;;;;;;5100978;28;19976;-79
2023/03/23 13:54:12;;;;;;;;;;;15.70;97.00;;;;;;5082695;28;19987;-79
2023/03/23 13:56:42;;;;;;;;;;;15.50;95.20;;;;;;5098261;28;19932;-79
2023/03/23 13:59:15;;;;;;;;;;;15.40;94.50;;;;;;5120637;27;19924;-79
2023/03/23 14:01:41;;;;;;;;;;;15.30;95.90;;;;;;5112408;28;20332;-79
2023/03/23 14:04:17;;;;;;;;;;;15.10;97.00;;;;;;5072326;28;19952;-79
2023/03/23 14:06:44;;;;;;;;;;;14.90;96.60;;;;;;5081333;28;20015;-79
2023/03/23 14:09:19;;;;;;;;;;;14.70;97.90;;;;;;5121515;27;19946;-79
2023/03/23 14:11:55;;;;;;;;;;;14.50;99.90;;;;;;5085835;28;19958;-80
2023/03/23 14:14:39;;;;;;;;;;;14.10;99.90;;;;;;5094887;28;19924;-79
2023/03/23 14:17:06;;;;;;;;;;;13.80;99.90;;;;;;5080759;28;20006;-79
2023/03/23 14:19:31;;;;;;;;;;;13.80;99.90;;;;;;5072680;28;19939;-79
2023/03/23 14:21:58;;;;;;;;;;;13.90;99.90;;;;;;5074323;28;19924;-79
2023/03/23 14:24:25;;;;;;;;;;;13.90;99.90;;;;;;5078973;28;19981;-80
2023/03/23 14:26:52;;;;;;;;;;;13.90;99.90;;;;;;5092265;28;20993;-80